Time;durP1;ratioP1;P1;durP2;ratioP2;P2;SDS_P1;SDS_P2;PMS_P1;PMS_P2;Temp;Humidity;BMP_temperature;BMP_pressure;BME280_temperature;BME280_humidity;BME280_pressure;Samples;Min_cycle;Max_cycle;Signal;HPM_P1;HPM_P2
2022/01/28 00:01:34;;;;;;;22.33;13.00;;;;;;;;;;773622;180;919268;-66
2022/01/28 00:03:50;;;;;;;24.77;12.82;;;;;;;;;;768373;180;918826;-67
2022/01/28 00:06:17;;;;;;;24.50;12.40;;;;;;;;;;770713;180;918762;-65
2022/01/28 00:08:42;;;;;;;24.30;12.47;;;;;;;;;;776780;180;920259;-65
2022/01/28 00:11:08;;;;;;;20.33;12.07;;;;;;;;;;769779;181;920552;-65
2022/01/28 00:13:37;;;;;;;15.47;11.20;;;;;;;;;;774639;178;945379;-65
2022/01/28 00:16:26;;;;;;;16.50;10.30;;;;;;;;;;768988;178;919599;-65
2022/01/28 00:18:44;;;;;;;20.33;12.97;;;;;;;;;;776613;180;919545;-65
2022/01/28 00:36:27;;;;;;;15.83;9.77;;;;;;;;;;769029;180;918996;-65
2022/01/28 00:38:49;;;;;;;15.55;11.00;;;;;;;;;;775304;180;919314;-65
2022/01/28 00:41:15;;;;;;;16.17;9.80;;;;;;;;;;779339;180;919482;-65
2022/01/28 00:43:41;;;;;;;16.63;10.33;;;;;;;;;;776492;180;920286;-65
2022/01/28 00:46:07;;;;;;;16.50;10.30;;;;;;;;;;773851;180;920044;-65
2022/01/28 00:48:32;;;;;;;18.67;10.50;;;;;;;;;;774579;180;919361;-67
2022/01/28 00:50:58;;;;;;;15.98;9.07;;;;;;;;;;781502;179;629850;-67
2022/01/28 00:53:24;;;;;;;17.23;10.90;;;;;;;;;;777749;178;627546;-67
2022/01/28 00:55:50;;;;;;;16.23;11.57;;;;;;;;;;778226;180;635768;-67
2022/01/28 00:58:16;;;;;;;16.97;10.80;;;;;;;;;;775174;179;633476;-67
2022/01/28 01:00:42;;;;;;;19.63;11.47;;;;;;;;;;768758;182;631980;-68
2022/01/28 01:03:07;;;;;;;16.47;9.77;;;;;;;;;;773871;177;987323;-68
2022/01/28 01:05:34;;;;;;;17.27;9.77;;;;;;;;;;773276;179;919489;-68
2022/01/28 01:07:59;;;;;;;13.50;9.20;;;;;;;;;;763907;180;918220;-67
2022/01/28 01:10:26;;;;;;;17.50;9.07;;;;;;;;;;768395;178;919504;-68
2022/01/28 01:12:51;;;;;;;13.70;9.07;;;;;;;;;;773869;177;918700;-68
2022/01/28 01:15:21;;;;;;;13.10;10.00;;;;;;;;;;779399;177;918863;-68
2022/01/28 01:17:54;;;;;;;11.23;7.90;;;;;;;;;;774050;180;918875;-68
2022/01/28 01:20:38;;;;;;;17.92;10.38;;;;;;;;;;768297;180;919212;-68
2022/01/28 01:23:04;;;;;;;17.67;10.10;;;;;;;;;;770177;180;919371;-67
2022/01/28 01:25:23;;;;;;;17.70;10.10;;;;;;;;;;776080;180;918509;-67
2022/01/28 01:27:42;;;;;;;16.23;10.30;;;;;;;;;;770416;180;918641;-68
2022/01/28 01:30:09;;;;;;;13.87;8.37;;;;;;;;;;772262;179;919580;-69
2022/01/28 01:32:34;;;;;;;16.50;10.97;;;;;;;;;;773573;178;919814;-67
2022/01/28 01:35:00;;;;;;;17.07;10.97;;;;;;;;;;774124;178;918194;-67
2022/01/28 01:37:26;;;;;;;15.97;10.77;;;;;;;;;;773080;177;919116;-68
2022/01/28 01:39:53;;;;;;;15.60;10.77;;;;;;;;;;773902;180;918329;-67
2022/01/28 01:42:28;;;;;;;17.07;10.33;;;;;;;;;;780138;180;919389;-68
2022/01/28 01:52:19;;;;;;;16.30;10.30;;;;;;;;;;777209;180;918226;-68
2022/01/28 01:54:45;;;;;;;18.47;10.47;;;;;;;;;;764089;180;919852;-67
2022/01/28 01:57:10;;;;;;;18.47;9.63;;;;;;;;;;774286;180;919650;-68
2022/01/28 01:59:36;;;;;;;15.20;10.90;;;;;;;;;;778925;178;933610;-65
2022/01/28 02:02:02;;;;;;;16.80;8.67;;;;;;;;;;770498;180;937467;-65
2022/01/28 02:04:28;;;;;;;18.50;9.97;;;;;;;;;;775667;177;919023;-67
2022/01/28 02:06:54;;;;;;;14.57;8.05;;;;;;;;;;774825;178;919138;-67
2022/01/28 02:09:20;;;;;;;14.93;7.83;;;;;;;;;;779184;177;919632;-66
2022/01/28 02:11:46;;;;;;;12.70;9.60;;;;;;;;;;773020;180;918639;-67
2022/01/28 02:14:11;;;;;;;11.93;8.30;;;;;;;;;;774850;177;921970;-66
2022/01/28 02:16:37;;;;;;;16.53;7.93;;;;;;;;;;777631;180;917861;-66
2022/01/28 02:19:03;;;;;;;12.30;7.83;;;;;;;;;;773518;178;914667;-66
2022/01/28 02:21:29;;;;;;;15.23;7.10;;;;;;;;;;772254;178;912515;-66
2022/01/28 02:24:01;;;;;;;13.97;7.43;;;;;;;;;;767100;184;912439;-65
2022/01/28 02:26:21;;;;;;;12.87;8.40;;;;;;;;;;767545;181;915662;-66
2022/01/28 02:28:51;;;;;;;9.67;4.70;;;;;;;;;;766649;181;919210;-64
2022/01/28 02:31:13;;;;;;;9.67;6.20;;;;;;;;;;772674;179;918467;-66
2022/01/28 02:33:38;;;;;;;13.07;8.27;;;;;;;;;;773379;180;919450;-66
2022/01/28 02:36:07;;;;;;;12.67;7.70;;;;;;;;;;766380;180;920127;-63
2022/01/28 02:38:30;;;;;;;11.87;8.27;;;;;;;;;;760159;184;921608;-65
2022/01/28 02:40:58;;;;;;;11.27;5.77;;;;;;;;;;771993;178;920066;-66
2022/01/28 02:43:33;;;;;;;12.60;8.13;;;;;;;;;;777275;177;919318;-66
2022/01/28 02:45:54;;;;;;;10.65;7.03;;;;;;;;;;772504;180;919848;-66
2022/01/28 02:48:21;;;;;;;9.37;6.17;;;;;;;;;;771016;177;918813;-65
2022/01/28 02:51:06;;;;;;;10.03;6.80;;;;;;;;;;770314;180;919858;-65
2022/01/28 02:53:29;;;;;;;10.27;5.70;;;;;;;;;;779309;180;920170;-66
2022/01/28 02:56:03;;;;;;;8.65;5.70;;;;;;;;;;762059;177;919209;-65
2022/01/28 02:58:29;;;;;;;6.83;4.30;;;;;;;;;;756289;182;919116;-65
2022/01/28 03:00:55;;;;;;;5.20;4.33;;;;;;;;;;772528;180;919108;-65
2022/01/28 03:03:23;;;;;;;10.03;4.50;;;;;;;;;;770388;180;915688;-66
2022/01/28 03:05:46;;;;;;;7.95;4.47;;;;;;;;;;774664;177;1019668;-65
2022/01/28 03:08:12;;;;;;;6.80;4.37;;;;;;;;;;775536;177;916617;-65
2022/01/28 03:10:46;;;;;;;5.70;3.67;;;;;;;;;;779807;180;915322;-65
2022/01/28 03:15:52;;;;;;;11.00;5.30;;;;;;;;;;763509;180;918743;-65
2022/01/28 03:18:18;;;;;;;10.77;5.03;;;;;;;;;;772496;181;918859;-65
2022/01/28 03:20:43;;;;;;;7.60;5.00;;;;;;;;;;778826;178;918435;-65
2022/01/28 03:23:05;;;;;;;8.50;4.60;;;;;;;;;;772727;179;918630;-66
2022/01/28 03:25:31;;;;;;;6.40;5.10;;;;;;;;;;771160;179;1046855;-65
2022/01/28 03:27:59;;;;;;;6.10;4.43;;;;;;;;;;775457;179;918574;-64
2022/01/28 03:30:22;;;;;;;6.00;3.97;;;;;;;;;;768409;179;918128;-65
2022/01/28 03:32:48;;;;;;;6.50;4.57;;;;;;;;;;759051;181;919264;-66
2022/01/28 03:35:16;;;;;;;6.43;4.07;;;;;;;;;;772148;181;1022007;-64
2022/01/28 03:37:40;;;;;;;12.02;5.12;;;;;;;;;;776051;181;919074;-66
2022/01/28 03:40:07;;;;;;;8.83;3.40;;;;;;;;;;762708;181;918849;-66
2022/01/28 03:42:32;;;;;;;7.17;4.00;;;;;;;;;;764537;180;920152;-65
2022/01/28 03:44:58;;;;;;;8.13;5.40;;;;;;;;;;773314;181;919443;-66
2022/01/28 03:47:23;;;;;;;7.87;3.37;;;;;;;;;;773633;180;918589;-66
2022/01/28 03:49:49;;;;;;;8.00;4.77;;;;;;;;;;773918;177;920321;-65
2022/01/28 03:52:15;;;;;;;5.47;2.80;;;;;;;;;;776793;180;918648;-65
2022/01/28 03:54:41;;;;;;;7.70;3.40;;;;;;;;;;772920;180;1047488;-65
2022/01/28 03:57:07;;;;;;;11.73;4.87;;;;;;;;;;771999;178;919553;-65
2022/01/28 03:59:33;;;;;;;8.53;3.63;;;;;;;;;;772080;179;919732;-64
2022/01/28 04:01:58;;;;;;;6.70;3.43;;;;;;;;;;767554;181;950486;-66
2022/01/28 04:05:31;;;;;;;3.97;3.00;;;;;;;;;;773348;177;943388;-65
2022/01/28 04:12:07;;;;;;;6.03;2.60;;;;;;;;;;773281;180;918861;-64
2022/01/28 04:19:39;;;;;;;8.63;3.93;;;;;;;;;;775184;178;918584;-65
2022/01/28 04:22:04;;;;;;;10.83;3.23;;;;;;;;;;765982;179;1919745;-66
2022/01/28 04:24:30;;;;;;;5.75;2.00;;;;;;;;;;776019;179;920721;-66
2022/01/28 04:26:58;;;;;;;4.87;2.50;;;;;;;;;;774484;177;919362;-66
2022/01/28 04:29:22;;;;;;;5.23;2.90;;;;;;;;;;773350;180;919345;-66
2022/01/28 04:31:48;;;;;;;3.90;2.65;;;;;;;;;;778385;180;920082;-66
2022/01/28 04:34:14;;;;;;;7.23;3.03;;;;;;;;;;773574;177;947106;-66
2022/01/28 04:36:52;;;;;;;5.67;2.90;;;;;;;;;;774619;180;919086;-66
2022/01/28 04:39:18;;;;;;;6.80;2.23;;;;;;;;;;774489;179;918844;-67
2022/01/28 04:41:51;;;;;;;4.13;2.73;;;;;;;;;;775401;180;919255;-66
2022/01/28 04:44:12;;;;;;;3.30;1.90;;;;;;;;;;772482;180;918014;-66
2022/01/28 04:46:39;;;;;;;4.35;2.72;;;;;;;;;;770271;176;919233;-65
2022/01/28 04:49:04;;;;;;;4.13;1.60;;;;;;;;;;773269;180;918380;-65
2022/01/28 04:51:44;;;;;;;3.33;1.87;;;;;;;;;;767988;180;918873;-65
2022/01/28 04:54:03;;;;;;;3.00;1.93;;;;;;;;;;773166;180;918100;-65
2022/01/28 04:56:31;;;;;;;4.03;1.90;;;;;;;;;;771822;178;919012;-64
2022/01/28 04:58:59;;;;;;;3.10;1.20;;;;;;;;;;778436;180;919455;-65
2022/01/28 05:01:30;;;;;;;4.15;1.65;;;;;;;;;;772082;178;919225;-65
2022/01/28 05:03:52;;;;;;;3.10;1.67;;;;;;;;;;769760;180;919336;-64
2022/01/28 05:09:10;;;;;;;4.03;2.20;;;;;;;;;;776390;177;712459;-65
2022/01/28 05:14:35;;;;;;;8.73;2.67;;;;;;;;;;764256;177;634355;-65
2022/01/28 05:24:26;;;;;;;1.97;1.23;;;;;;;;;;776604;178;636928;-66
2022/01/28 05:26:40;;;;;;;3.17;1.60;;;;;;;;;;766027;183;919481;-65
2022/01/28 05:29:02;;;;;;;2.93;1.70;;;;;;;;;;772984;179;918889;-65
2022/01/28 05:31:28;;;;;;;3.50;1.73;;;;;;;;;;775442;180;920287;-65
2022/01/28 05:33:54;;;;;;;4.20;1.50;;;;;;;;;;777987;180;918234;-66
2022/01/28 05:36:20;;;;;;;5.20;2.17;;;;;;;;;;772602;179;919336;-66
2022/01/28 05:38:45;;;;;;;4.20;1.85;;;;;;;;;;776293;180;817966;-67
2022/01/28 05:41:11;;;;;;;3.23;2.07;;;;;;;;;;781218;180;919234;-65
2022/01/28 05:43:37;;;;;;;2.57;1.40;;;;;;;;;;776340;180;919204;-65
2022/01/28 05:46:03;;;;;;;4.37;2.00;;;;;;;;;;766318;181;1198094;-65
2022/01/28 05:48:29;;;;;;;2.95;1.55;;;;;;;;;;777563;180;918899;-65
2022/01/28 05:50:55;;;;;;;4.63;1.80;;;;;;;;;;775313;180;641853;-65
2022/01/28 05:53:20;;;;;;;3.12;1.65;;;;;;;;;;762520;182;922782;-65
2022/01/28 05:55:47;;;;;;;7.05;1.90;;;;;;;;;;775672;180;1005169;-64
2022/01/28 05:58:13;;;;;;;2.70;1.80;;;;;;;;;;770510;180;915906;-66
2022/01/28 06:00:39;;;;;;;3.00;1.97;;;;;;;;;;772288;180;643804;-65
2022/01/28 06:03:05;;;;;;;3.20;2.03;;;;;;;;;;777611;177;641199;-66
2022/01/28 06:05:30;;;;;;;3.77;1.90;;;;;;;;;;779153;181;630555;-68
2022/01/28 06:07:56;;;;;;;2.37;1.63;;;;;;;;;;778077;177;614560;-65
2022/01/28 06:10:22;;;;;;;4.15;2.30;;;;;;;;;;780419;180;634958;-65
2022/01/28 06:12:48;;;;;;;2.90;1.67;;;;;;;;;;776722;178;918673;-64
2022/01/28 06:15:14;;;;;;;2.53;1.67;;;;;;;;;;762334;180;916243;-61
2022/01/28 06:17:40;;;;;;;7.83;2.40;;;;;;;;;;765273;181;812929;-64
2022/01/28 06:20:06;;;;;;;9.07;2.67;;;;;;;;;;774298;178;919304;-65
2022/01/28 06:22:32;;;;;;;2.70;1.90;;;;;;;;;;769023;179;918960;-64
2022/01/28 06:24:58;;;;;;;4.10;1.80;;;;;;;;;;768196;178;916894;-65
2022/01/28 06:27:24;;;;;;;3.60;1.87;;;;;;;;;;773774;180;921663;-65
2022/01/28 06:29:49;;;;;;;8.37;2.20;;;;;;;;;;781892;180;918684;-64
2022/01/28 06:32:16;;;;;;;9.45;2.78;;;;;;;;;;775496;178;943305;-65
2022/01/28 06:34:41;;;;;;;5.93;2.30;;;;;;;;;;771511;178;920564;-65
2022/01/28 06:37:07;;;;;;;4.40;2.30;;;;;;;;;;765215;181;918805;-63
2022/01/28 06:39:33;;;;;;;3.13;1.77;;;;;;;;;;773083;179;922662;-65
2022/01/28 06:41:59;;;;;;;4.17;2.20;;;;;;;;;;774987;177;943764;-65
2022/01/28 06:44:25;;;;;;;17.43;4.07;;;;;;;;;;783537;177;920028;-65
2022/01/28 06:46:51;;;;;;;4.00;2.03;;;;;;;;;;775045;177;915669;-64
2022/01/28 06:49:17;;;;;;;6.00;2.73;;;;;;;;;;774586;180;918974;-65
2022/01/28 06:51:43;;;;;;;10.03;1.97;;;;;;;;;;770520;180;920105;-64
2022/01/28 06:54:08;;;;;;;6.17;2.60;;;;;;;;;;778693;178;919251;-65
2022/01/28 06:56:34;;;;;;;14.40;3.47;;;;;;;;;;773522;178;918821;-64
2022/01/28 06:59:00;;;;;;;3.20;2.30;;;;;;;;;;771799;177;916713;-64
2022/01/28 07:01:26;;;;;;;6.57;3.00;;;;;;;;;;776207;181;914577;-65
2022/01/28 07:03:52;;;;;;;4.87;1.80;;;;;;;;;;771907;178;924732;-64
2022/01/28 07:06:19;;;;;;;8.40;2.50;;;;;;;;;;772965;180;919044;-64
2022/01/28 07:08:43;;;;;;;4.23;2.07;;;;;;;;;;779063;177;919036;-64
2022/01/28 07:11:09;;;;;;;5.77;2.93;;;;;;;;;;769680;180;920181;-64
2022/01/28 07:13:35;;;;;;;7.37;2.30;;;;;;;;;;770714;178;919262;-64
2022/01/28 07:16:01;;;;;;;2.50;1.43;;;;;;;;;;767759;180;919709;-62
2022/01/28 07:18:28;;;;;;;6.97;1.83;;;;;;;;;;769997;180;906884;-64
2022/01/28 07:20:53;;;;;;;5.80;1.93;;;;;;;;;;770925;180;918840;-64
2022/01/28 07:23:18;;;;;;;3.77;2.07;;;;;;;;;;772454;180;919930;-64
2022/01/28 07:25:44;;;;;;;5.53;1.90;;;;;;;;;;777678;180;919193;-63
2022/01/28 07:28:10;;;;;;;7.20;2.00;;;;;;;;;;771975;180;918907;-64
2022/01/28 07:30:36;;;;;;;10.98;2.22;;;;;;;;;;767495;180;943466;-64
2022/01/28 07:33:05;;;;;;;12.40;1.80;;;;;;;;;;773318;180;916818;-63
2022/01/28 07:35:28;;;;;;;7.80;1.87;;;;;;;;;;770731;180;918926;-64
2022/01/28 07:37:54;;;;;;;2.87;1.53;;;;;;;;;;773687;181;916939;-64
2022/01/28 07:40:19;;;;;;;2.40;1.20;;;;;;;;;;778796;178;918935;-64
2022/01/28 07:42:45;;;;;;;4.40;2.10;;;;;;;;;;775478;180;919498;-63
2022/01/28 07:45:11;;;;;;;5.00;1.63;;;;;;;;;;773977;180;919283;-63
2022/01/28 07:47:37;;;;;;;3.20;1.90;;;;;;;;;;773610;178;919088;-64
2022/01/28 07:50:03;;;;;;;6.60;2.10;;;;;;;;;;780898;180;918595;-62
2022/01/28 07:52:29;;;;;;;11.27;3.53;;;;;;;;;;778406;177;918924;-63
2022/01/28 07:54:54;;;;;;;7.28;3.92;;;;;;;;;;778104;180;714329;-64
2022/01/28 07:57:20;;;;;;;9.17;3.83;;;;;;;;;;779935;180;918524;-63
2022/01/28 07:59:46;;;;;;;3.58;2.00;;;;;;;;;;757607;182;919217;-64
2022/01/28 08:02:12;;;;;;;5.87;2.90;;;;;;;;;;771341;178;919776;-64
2022/01/28 08:04:38;;;;;;;5.40;2.43;;;;;;;;;;780750;180;918533;-64
2022/01/28 08:07:04;;;;;;;12.73;2.53;;;;;;;;;;770617;180;1241393;-64
2022/01/28 08:09:30;;;;;;;7.10;2.50;;;;;;;;;;773481;180;918771;-64
2022/01/28 08:11:56;;;;;;;6.87;1.50;;;;;;;;;;772670;180;918900;-63
2022/01/28 08:14:21;;;;;;;2.73;1.60;;;;;;;;;;771496;180;816390;-63
2022/01/28 08:16:47;;;;;;;4.27;2.17;;;;;;;;;;771761;178;919463;-64
2022/01/28 08:19:13;;;;;;;3.90;2.10;;;;;;;;;;771986;180;1021685;-64
2022/01/28 08:21:39;;;;;;;3.80;1.30;;;;;;;;;;776753;180;918820;-64
2022/01/28 08:24:05;;;;;;;9.83;2.73;;;;;;;;;;765957;180;919695;-64
2022/01/28 08:26:31;;;;;;;6.83;2.97;;;;;;;;;;770307;177;919137;-64
2022/01/28 08:28:57;;;;;;;8.70;3.30;;;;;;;;;;769422;180;920168;-64
2022/01/28 08:31:22;;;;;;;6.40;2.07;;;;;;;;;;770055;180;918182;-63
2022/01/28 08:33:48;;;;;;;6.35;2.30;;;;;;;;;;773021;180;918871;-64
2022/01/28 08:36:15;;;;;;;5.85;1.80;;;;;;;;;;771763;180;919103;-63
2022/01/28 08:38:44;;;;;;;10.57;3.13;;;;;;;;;;769250;180;919511;-63
2022/01/28 08:41:11;;;;;;;8.07;3.10;;;;;;;;;;759483;181;918976;-64
2022/01/28 08:43:35;;;;;;;6.23;2.20;;;;;;;;;;768745;180;918998;-64
2022/01/28 08:46:01;;;;;;;2.80;1.40;;;;;;;;;;773488;180;918298;-64
2022/01/28 08:48:27;;;;;;;9.60;4.23;;;;;;;;;;770413;180;919954;-64
2022/01/28 08:50:53;;;;;;;9.73;3.50;;;;;;;;;;758884;181;918812;-64
2022/01/28 08:53:18;;;;;;;8.23;3.60;;;;;;;;;;775930;180;917084;-64
2022/01/28 08:55:44;;;;;;;7.80;2.30;;;;;;;;;;763835;179;919160;-64
2022/01/28 08:58:10;;;;;;;6.73;3.17;;;;;;;;;;768098;180;917649;-64
2022/01/28 09:00:36;;;;;;;8.90;3.50;;;;;;;;;;772098;180;919297;-64
2022/01/28 09:03:02;;;;;;;3.63;2.00;;;;;;;;;;767719;179;919776;-64
2022/01/28 09:05:29;;;;;;;12.77;2.50;;;;;;;;;;771880;180;1023897;-63
2022/01/28 09:07:55;;;;;;;9.13;3.13;;;;;;;;;;771585;181;1021818;-64
2022/01/28 09:10:29;;;;;;;11.40;5.20;;;;;;;;;;781715;180;920165;-64
2022/01/28 09:12:59;;;;;;;4.17;1.77;;;;;;;;;;762514;182;919535;-63
2022/01/28 09:15:14;;;;;;;13.10;4.03;;;;;;;;;;771929;180;919629;-64
2022/01/28 09:17:39;;;;;;;7.77;2.43;;;;;;;;;;780052;179;918691;-63
2022/01/28 09:20:06;;;;;;;5.20;2.93;;;;;;;;;;761787;179;1079942;-64
2022/01/28 09:22:32;;;;;;;4.43;2.63;;;;;;;;;;766201;181;918339;-64
2022/01/28 09:24:57;;;;;;;10.30;2.70;;;;;;;;;;774422;178;1020808;-63
2022/01/28 09:27:23;;;;;;;7.20;2.90;;;;;;;;;;780583;177;903005;-63
2022/01/28 09:29:49;;;;;;;18.77;3.27;;;;;;;;;;763604;181;919166;-63
2022/01/28 09:32:16;;;;;;;5.47;3.17;;;;;;;;;;774193;180;917492;-64
2022/01/28 09:34:41;;;;;;;2.40;1.80;;;;;;;;;;779812;178;920611;-64
2022/01/28 09:37:07;;;;;;;24.37;8.10;;;;;;;;;;774682;178;920966;-64
2022/01/28 09:39:33;;;;;;;6.57;2.17;;;;;;;;;;778831;179;617057;-64
2022/01/28 09:42:02;;;;;;;5.27;2.47;;;;;;;;;;778891;180;915689;-63
2022/01/28 09:44:24;;;;;;;7.43;2.80;;;;;;;;;;773207;180;916315;-63
2022/01/28 09:46:50;;;;;;;4.40;2.93;;;;;;;;;;774444;180;918733;-64
2022/01/28 09:49:16;;;;;;;8.90;2.37;;;;;;;;;;768804;178;918879;-62
2022/01/28 09:51:42;;;;;;;7.10;2.80;;;;;;;;;;764201;182;920346;-64
2022/01/28 09:54:07;;;;;;;7.27;2.30;;;;;;;;;;764681;180;919241;-63
2022/01/28 09:56:33;;;;;;;14.50;3.37;;;;;;;;;;766006;179;917645;-63
2022/01/28 09:58:59;;;;;;;10.93;3.62;;;;;;;;;;776535;180;919081;-62
2022/01/28 10:01:26;;;;;;;6.77;2.60;;;;;;;;;;772767;180;919627;-63
2022/01/28 10:03:57;;;;;;;4.93;2.53;;;;;;;;;;774006;178;919154;-63
2022/01/28 10:06:29;;;;;;;12.23;3.10;;;;;;;;;;779404;177;910589;-63
2022/01/28 10:08:55;;;;;;;8.67;2.73;;;;;;;;;;777414;180;919004;-63
2022/01/28 10:11:20;;;;;;;11.80;2.00;;;;;;;;;;768715;180;920115;-64
2022/01/28 10:13:50;;;;;;;6.97;2.60;;;;;;;;;;772457;179;922554;-63
2022/01/28 10:16:12;;;;;;;4.23;2.33;;;;;;;;;;779040;180;917837;-62
2022/01/28 10:18:38;;;;;;;7.90;3.30;;;;;;;;;;768907;180;921417;-64
2022/01/28 10:21:05;;;;;;;6.00;2.53;;;;;;;;;;775830;179;920187;-63
2022/01/28 10:23:32;;;;;;;7.43;1.73;;;;;;;;;;772885;179;919897;-62
2022/01/28 10:26:01;;;;;;;11.73;3.70;;;;;;;;;;761052;181;918155;-63
2022/01/28 10:28:28;;;;;;;3.30;2.30;;;;;;;;;;768201;180;919792;-64
2022/01/28 10:30:53;;;;;;;4.37;2.37;;;;;;;;;;773663;177;1022329;-64
2022/01/28 10:33:21;;;;;;;8.23;2.90;;;;;;;;;;776750;180;919355;-63
2022/01/28 10:35:48;;;;;;;12.23;3.20;;;;;;;;;;773545;181;917834;-63
2022/01/28 10:38:14;;;;;;;7.23;2.40;;;;;;;;;;774561;181;918426;-63
2022/01/28 10:40:40;;;;;;;7.22;3.00;;;;;;;;;;770798;180;919502;-64
2022/01/28 10:43:06;;;;;;;5.67;2.43;;;;;;;;;;775443;178;919026;-63
2022/01/28 10:45:32;;;;;;;4.47;2.63;;;;;;;;;;763949;177;918364;-63
2022/01/28 10:47:58;;;;;;;6.93;2.87;;;;;;;;;;766743;178;916719;-62
2022/01/28 10:50:26;;;;;;;6.57;3.17;;;;;;;;;;779178;178;918225;-64
2022/01/28 10:52:58;;;;;;;5.03;3.10;;;;;;;;;;773738;179;915953;-64
2022/01/28 10:55:24;;;;;;;5.73;2.83;;;;;;;;;;774400;177;915577;-64
2022/01/28 10:57:57;;;;;;;6.35;3.20;;;;;;;;;;771084;177;919761;-63
2022/01/28 11:00:23;;;;;;;10.93;3.83;;;;;;;;;;767892;181;914656;-63
2022/01/28 11:02:50;;;;;;;4.80;1.83;;;;;;;;;;768571;181;919375;-64
2022/01/28 11:05:15;;;;;;;4.17;2.73;;;;;;;;;;774571;180;920964;-62
2022/01/28 11:07:42;;;;;;;11.18;2.75;;;;;;;;;;762592;184;919709;-63
2022/01/28 11:10:08;;;;;;;7.03;2.50;;;;;;;;;;768336;181;918936;-63
2022/01/28 11:12:34;;;;;;;5.77;2.40;;;;;;;;;;772126;181;919613;-64
2022/01/28 11:15:00;;;;;;;10.97;2.50;;;;;;;;;;771700;180;919303;-62
2022/01/28 11:17:26;;;;;;;11.23;3.00;;;;;;;;;;779216;180;919474;-63
2022/01/28 11:19:53;;;;;;;8.10;2.90;;;;;;;;;;772299;180;919769;-64
2022/01/28 11:22:21;;;;;;;6.03;2.60;;;;;;;;;;772609;177;918960;-64
2022/01/28 11:24:50;;;;;;;4.50;2.77;;;;;;;;;;775350;180;918973;-62
2022/01/28 11:27:18;;;;;;;9.73;2.77;;;;;;;;;;780306;178;918253;-64
2022/01/28 11:29:43;;;;;;;7.10;2.40;;;;;;;;;;774930;180;919876;-62
2022/01/28 11:32:10;;;;;;;8.03;2.77;;;;;;;;;;773793;180;934080;-64
2022/01/28 11:34:36;;;;;;;5.03;2.33;;;;;;;;;;780932;177;918424;-62
2022/01/28 11:37:09;;;;;;;4.93;2.00;;;;;;;;;;773068;179;1036848;-61
2022/01/28 11:39:37;;;;;;;11.83;2.33;;;;;;;;;;770947;180;920657;-63
2022/01/28 11:42:01;;;;;;;10.03;3.20;;;;;;;;;;772682;177;919852;-64
2022/01/28 11:44:33;;;;;;;8.90;2.87;;;;;;;;;;779978;181;920011;-62
2022/01/28 11:46:58;;;;;;;8.67;3.27;;;;;;;;;;776131;179;917634;-64
2022/01/28 11:49:24;;;;;;;5.67;2.70;;;;;;;;;;756146;184;923179;-64
2022/01/28 11:51:50;;;;;;;7.73;3.47;;;;;;;;;;773629;181;919655;-62
2022/01/28 11:54:16;;;;;;;5.67;2.50;;;;;;;;;;771760;180;920022;-62
2022/01/28 11:56:48;;;;;;;7.55;2.90;;;;;;;;;;767860;180;919733;-62
2022/01/28 11:59:14;;;;;;;6.97;3.13;;;;;;;;;;763977;180;1124081;-64
2022/01/28 12:01:54;;;;;;;6.70;2.60;;;;;;;;;;776443;178;919271;-62
2022/01/28 12:04:39;;;;;;;6.97;2.97;;;;;;;;;;778324;178;918981;-64
2022/01/28 12:07:05;;;;;;;6.77;3.13;;;;;;;;;;776053;180;918703;-63
2022/01/28 12:09:31;;;;;;;9.20;2.40;;;;;;;;;;770474;178;919773;-63
2022/01/28 12:11:58;;;;;;;10.37;3.50;;;;;;;;;;773333;180;919139;-64
2022/01/28 12:14:30;;;;;;;5.80;1.37;;;;;;;;;;776964;180;919936;-63
2022/01/28 12:16:57;;;;;;;6.60;3.03;;;;;;;;;;774027;180;1226335;-64
2022/01/28 12:19:20;;;;;;;7.63;2.80;;;;;;;;;;770948;180;919658;-63
2022/01/28 12:21:52;;;;;;;3.58;2.17;;;;;;;;;;766367;180;1021199;-65
2022/01/28 12:24:33;;;;;;;10.60;2.67;;;;;;;;;;776796;180;918440;-65
2022/01/28 12:27:02;;;;;;;8.13;2.93;;;;;;;;;;778847;178;918883;-65
2022/01/28 12:29:30;;;;;;;4.77;2.37;;;;;;;;;;775054;180;1019646;-64
2022/01/28 12:31:59;;;;;;;7.20;2.50;;;;;;;;;;772977;180;918223;-63
2022/01/28 12:34:25;;;;;;;5.30;2.50;;;;;;;;;;770199;180;919520;-64
2022/01/28 12:36:51;;;;;;;5.63;2.90;;;;;;;;;;766046;180;918799;-64
2022/01/28 12:39:24;;;;;;;4.70;2.17;;;;;;;;;;773892;180;919674;-64
2022/01/28 12:41:51;;;;;;;10.63;4.03;;;;;;;;;;774584;180;919579;-62
2022/01/28 12:44:11;;;;;;;7.13;2.87;;;;;;;;;;771254;179;920123;-62
2022/01/28 12:46:37;;;;;;;5.50;1.80;;;;;;;;;;778805;178;919189;-64
2022/01/28 12:49:04;;;;;;;5.43;1.90;;;;;;;;;;773956;180;919724;-65
2022/01/28 12:51:30;;;;;;;4.57;2.03;;;;;;;;;;772985;180;924836;-64
2022/01/28 12:53:57;;;;;;;7.40;2.70;;;;;;;;;;777492;180;940523;-63
2022/01/28 12:56:27;;;;;;;4.87;2.77;;;;;;;;;;775042;179;816235;-62
2022/01/28 12:58:53;;;;;;;7.87;3.07;;;;;;;;;;773281;179;921239;-63
2022/01/28 13:01:19;;;;;;;9.97;3.00;;;;;;;;;;772772;180;920123;-64
2022/01/28 13:03:51;;;;;;;4.67;2.70;;;;;;;;;;778712;180;920921;-65
2022/01/28 13:06:53;;;;;;;8.40;3.93;;;;;;;;;;772587;179;951802;-64
2022/01/28 13:09:14;;;;;;;7.77;2.80;;;;;;;;;;772352;181;920129;-65
2022/01/28 13:11:41;;;;;;;7.27;2.33;;;;;;;;;;766660;180;915294;-64
2022/01/28 13:14:07;;;;;;;11.17;3.10;;;;;;;;;;773417;180;919705;-64
2022/01/28 13:16:33;;;;;;;4.03;2.43;;;;;;;;;;774014;180;915970;-64
2022/01/28 13:18:59;;;;;;;3.93;2.87;;;;;;;;;;767785;180;916117;-64
2022/01/28 13:21:24;;;;;;;7.53;2.17;;;;;;;;;;775535;180;641637;-63
2022/01/28 13:24:05;;;;;;;8.60;2.90;;;;;;;;;;771308;180;920301;-63
2022/01/28 13:26:31;;;;;;;11.73;4.53;;;;;;;;;;768470;179;919223;-63
2022/01/28 13:29:03;;;;;;;19.40;9.67;;;;;;;;;;764079;180;918954;-64
2022/01/28 13:31:29;;;;;;;7.17;3.77;;;;;;;;;;762719;181;919036;-65
2022/01/28 13:33:58;;;;;;;5.00;2.90;;;;;;;;;;773213;181;919014;-64
2022/01/28 13:36:23;;;;;;;10.13;2.60;;;;;;;;;;778890;180;919343;-65
2022/01/28 13:38:49;;;;;;;15.13;5.97;;;;;;;;;;773305;181;920092;-65
2022/01/28 13:41:19;;;;;;;4.30;2.53;;;;;;;;;;775559;179;919086;-64
2022/01/28 13:43:45;;;;;;;3.73;2.20;;;;;;;;;;771734;177;919238;-64
2022/01/28 13:46:12;;;;;;;4.45;1.98;;;;;;;;;;777761;180;918363;-65
2022/01/28 13:48:39;;;;;;;7.73;4.23;;;;;;;;;;773455;180;917732;-64
2022/01/28 13:51:07;;;;;;;3.97;2.00;;;;;;;;;;772970;176;1021288;-64
2022/01/28 13:56:19;;;;;;;3.03;1.93;;;;;;;;;;768127;179;1014711;-64
2022/01/28 13:58:46;;;;;;;2.63;2.00;;;;;;;;;;774996;180;919424;-65
2022/01/28 14:01:12;;;;;;;5.23;2.40;;;;;;;;;;762275;180;919656;-64
2022/01/28 14:03:44;;;;;;;6.10;2.13;;;;;;;;;;773889;180;918505;-65
2022/01/28 14:06:09;;;;;;;4.47;1.87;;;;;;;;;;780493;180;817024;-64
2022/01/28 14:08:40;;;;;;;3.00;1.73;;;;;;;;;;773955;179;817543;-65
2022/01/28 14:11:12;;;;;;;3.90;2.20;;;;;;;;;;774138;178;888963;-64
2022/01/28 14:13:39;;;;;;;4.90;2.70;;;;;;;;;;772481;179;919355;-62
2022/01/28 14:16:13;;;;;;;4.97;2.40;;;;;;;;;;778773;178;919036;-64
2022/01/28 14:18:30;;;;;;;8.90;2.77;;;;;;;;;;773326;178;918901;-65
2022/01/28 14:20:55;;;;;;;5.07;2.33;;;;;;;;;;775935;178;919522;-65
2022/01/28 14:23:21;;;;;;;7.93;2.80;;;;;;;;;;771206;180;1022107;-64
2022/01/28 14:25:47;;;;;;;13.43;2.50;;;;;;;;;;774525;178;919205;-63
2022/01/28 14:28:24;;;;;;;6.80;2.97;;;;;;;;;;767989;180;918833;-62
2022/01/28 14:30:41;;;;;;;3.60;2.30;;;;;;;;;;772643;178;920049;-64
2022/01/28 14:33:06;;;;;;;7.17;3.10;;;;;;;;;;777112;180;947910;-63
2022/01/28 14:35:31;;;;;;;16.15;3.55;;;;;;;;;;775578;180;912788;-65
2022/01/28 14:37:57;;;;;;;4.13;3.00;;;;;;;;;;766098;180;920010;-64
2022/01/28 14:40:22;;;;;;;3.40;2.70;;;;;;;;;;776518;178;912133;-64
2022/01/28 14:42:48;;;;;;;13.13;2.92;;;;;;;;;;773633;178;918728;-64
2022/01/28 14:45:14;;;;;;;7.43;2.80;;;;;;;;;;773009;180;919432;-64
2022/01/28 14:47:40;;;;;;;2.93;1.93;;;;;;;;;;768295;179;919983;-65
2022/01/28 14:50:06;;;;;;;4.53;2.37;;;;;;;;;;770854;180;919891;-65
2022/01/28 14:52:32;;;;;;;5.80;3.30;;;;;;;;;;771007;178;918267;-65
2022/01/28 14:54:58;;;;;;;7.27;3.43;;;;;;;;;;762850;180;918888;-64
2022/01/28 14:57:25;;;;;;;8.67;4.17;;;;;;;;;;772641;180;918943;-65
2022/01/28 14:59:49;;;;;;;7.73;3.17;;;;;;;;;;773088;179;919571;-64
2022/01/28 15:02:15;;;;;;;11.00;4.00;;;;;;;;;;776625;178;816931;-64
2022/01/28 15:04:41;;;;;;;6.50;4.60;;;;;;;;;;771657;180;918819;-62
2022/01/28 15:07:07;;;;;;;9.13;2.80;;;;;;;;;;764731;181;918546;-62
2022/01/28 15:09:39;;;;;;;8.13;3.40;;;;;;;;;;775038;179;714498;-64
2022/01/28 15:11:59;;;;;;;12.20;4.05;;;;;;;;;;775263;180;935143;-63